sensor_id;sensor_type;location;lat;lon;timestamp;pressure;altitude;pressure_sealevel;temperature;humidity
51876;BME280;34054;52.100;5.116;2022-10-16T00:00:29;100713.63;;;14.24;75.44
51876;BME280;34054;52.100;5.116;2022-10-16T00:01:05;100701.91;;;14.19;75.61
51876;BME280;34054;52.100;5.116;2022-10-16T00:01:39;100707.38;;;14.19;75.34
51876;BME280;34054;52.100;5.116;2022-10-16T00:02:10;100712.50;;;14.25;75.37
51876;BME280;34054;52.100;5.116;2022-10-16T00:02:42;100690.16;;;14.18;75.44
51876;BME280;34054;52.100;5.116;2022-10-16T00:03:15;100723.41;;;14.31;75.23
51876;BME280;34054;52.100;5.116;2022-10-16T00:03:48;100710.06;;;14.24;74.97
51876;BME280;34054;52.100;5.116;2022-10-16T00:04:20;100705.38;;;14.29;75.20
51876;BME280;34054;52.100;5.116;2022-10-16T00:04:52;100712.00;;;14.18;75.47
51876;BME280;34054;52.100;5.116;2022-10-16T00:05:25;100715.56;;;14.19;75.46
51876;BME280;34054;52.100;5.116;2022-10-16T00:05:59;100706.59;;;14.13;75.59
51876;BME280;34054;52.100;5.116;2022-10-16T00:06:32;100722.38;;;14.16;75.66
51876;BME280;34054;52.100;5.116;2022-10-16T00:07:04;100721.88;;;14.14;75.87
51876;BME280;34054;52.100;5.116;2022-10-16T00:07:35;100715.03;;;14.17;75.75
51876;BME280;34054;52.100;5.116;2022-10-16T00:08:11;100723.19;;;14.22;75.92
51876;BME280;34054;52.100;5.116;2022-10-16T00:08:43;100723.72;;;14.24;75.69
51876;BME280;34054;52.100;5.116;2022-10-16T00:09:15;100723.97;;;14.27;75.59
51876;BME280;34054;52.100;5.116;2022-10-16T00:09:48;100723.72;;;14.24;75.60
51876;BME280;34054;52.100;5.116;2022-10-16T00:10:20;100724.91;;;14.07;75.36
51876;BME280;34054;52.100;5.116;2022-10-16T00:10:52;100728.81;;;13.96;76.19
51876;BME280;34054;52.100;5.116;2022-10-16T00:11:26;100729.66;;;13.91;76.61
51876;BME280;34054;52.100;5.116;2022-10-16T00:12:00;100721.69;;;14.00;76.80
51876;BME280;34054;52.100;5.116;2022-10-16T00:12:31;100728.53;;;13.97;76.57
51876;BME280;34054;52.100;5.116;2022-10-16T00:13:04;100733.75;;;13.94;76.78
51876;BME280;34054;52.100;5.116;2022-10-16T00:13:39;100720.41;;;13.87;76.95
51876;BME280;34054;52.100;5.116;2022-10-16T00:14:13;100726.66;;;13.93;77.05
51876;BME280;34054;52.100;5.116;2022-10-16T00:14:47;100723.69;;;13.89;76.91
51876;BME280;34054;52.100;5.116;2022-10-16T00:15:19;100724.19;;;13.91;77.00
51876;BME280;34054;52.100;5.116;2022-10-16T00:15:50;100717.13;;;13.85;77.11
51876;BME280;34054;52.100;5.116;2022-10-16T00:16:26;100723.94;;;13.93;77.32
51876;BME280;34054;52.100;5.116;2022-10-16T00:16:59;100727.47;;;13.93;77.13
51876;BME280;34054;52.100;5.116;2022-10-16T00:17:31;100721.47;;;13.91;77.25
51876;BME280;34054;52.100;5.116;2022-10-16T00:18:04;100734.06;;;13.87;77.16
51876;BME280;34054;52.100;5.116;2022-10-16T00:18:36;100729.47;;;13.77;77.53
51876;BME280;34054;52.100;5.116;2022-10-16T00:19:10;100720.75;;;13.70;77.89
51876;BME280;34054;52.100;5.116;2022-10-16T00:19:43;100722.34;;;13.81;78.01
51876;BME280;34054;52.100;5.116;2022-10-16T00:20:15;100720.94;;;13.89;77.75
51876;BME280;34054;52.100;5.116;2022-10-16T00:20:47;100725.06;;;13.81;77.76
51876;BME280;34054;52.100;5.116;2022-10-16T00:21:22;100694.31;;;13.71;77.76
51876;BME280;34054;52.100;5.116;2022-10-16T00:21:55;100711.09;;;13.93;77.62
51876;BME280;34054;52.100;5.116;2022-10-16T00:22:26;100720.38;;;13.92;77.54
51876;BME280;34054;52.100;5.116;2022-10-16T00:22:59;100720.38;;;13.92;77.43
51876;BME280;34054;52.100;5.116;2022-10-16T00:23:32;100711.66;;;13.90;77.49
51876;BME280;34054;52.100;5.116;2022-10-16T00:24:07;100723.00;;;14.08;77.31
51876;BME280;34054;52.100;5.116;2022-10-16T00:24:41;100724.13;;;14.07;77.08
51876;BME280;34054;52.100;5.116;2022-10-16T00:25:12;100725.56;;;13.94;77.21
51876;BME280;34054;52.100;5.116;2022-10-16T00:25:44;100718.47;;;13.93;77.48
51876;BME280;34054;52.100;5.116;2022-10-16T00:26:18;100696.16;;;13.80;77.72
51876;BME280;34054;52.100;5.116;2022-10-16T00:26:50;100705.13;;;13.86;77.89
51876;BME280;34054;52.100;5.116;2022-10-16T00:27:22;100715.25;;;13.86;77.60
51876;BME280;34054;52.100;5.116;2022-10-16T00:27:54;100698.31;;;13.84;77.82
51876;BME280;34054;52.100;5.116;2022-10-16T00:28:26;100693.66;;;13.89;77.81
51876;BME280;34054;52.100;5.116;2022-10-16T00:28:58;100702.59;;;13.95;77.77
51876;BME280;34054;52.100;5.116;2022-10-16T00:29:31;100701.00;;;13.89;77.59
51876;BME280;34054;52.100;5.116;2022-10-16T00:30:03;100698.88;;;13.86;77.50
51876;BME280;34054;52.100;5.116;2022-10-16T00:30:37;100705.31;;;13.95;77.91
51876;BME280;34054;52.100;5.116;2022-10-16T00:31:11;100720.09;;;13.94;77.57
51876;BME280;34054;52.100;5.116;2022-10-16T00:31:43;100693.66;;;13.89;77.54
51876;BME280;34054;52.100;5.116;2022-10-16T00:32:15;100712.16;;;13.97;77.66
51876;BME280;34054;52.100;5.116;2022-10-16T00:32:47;100689.56;;;13.87;77.69
51876;BME280;34054;52.100;5.116;2022-10-16T00:33:19;100709.69;;;13.96;77.69
51876;BME280;34054;52.100;5.116;2022-10-16T00:33:51;100696.94;;;13.86;77.74
51876;BME280;34054;52.100;5.116;2022-10-16T00:34:24;100701.25;;;13.92;78.09
51876;BME280;34054;52.100;5.116;2022-10-16T00:34:56;100711.06;;;13.98;78.21
51876;BME280;34054;52.100;5.116;2022-10-16T00:35:27;100710.22;;;13.98;77.74
51876;BME280;34054;52.100;5.116;2022-10-16T00:36:01;100706.25;;;13.80;78.04
51876;BME280;34054;52.100;5.116;2022-10-16T00:36:34;100705.44;;;13.79;78.49
51876;BME280;34054;52.100;5.116;2022-10-16T00:37:06;100705.69;;;13.83;78.62
51876;BME280;34054;52.100;5.116;2022-10-16T00:37:38;100688.78;;;13.81;78.48
51876;BME280;34054;52.100;5.116;2022-10-16T00:38:10;100703.94;;;14.03;78.15
51876;BME280;34054;52.100;5.116;2022-10-16T00:38:43;100694.88;;;14.07;77.98
51876;BME280;34054;52.100;5.116;2022-10-16T00:39:16;100700.09;;;14.04;77.81
51876;BME280;34054;52.100;5.116;2022-10-16T00:39:48;100705.81;;;14.07;77.71
51876;BME280;34054;52.100;5.116;2022-10-16T00:40:20;100707.19;;;14.05;77.95
51876;BME280;34054;52.100;5.116;2022-10-16T00:40:53;100708.28;;;14.04;77.87
51876;BME280;34054;52.100;5.116;2022-10-16T00:41:25;100717.97;;;13.86;78.62
51876;BME280;34054;52.100;5.116;2022-10-16T00:41:57;100725.13;;;13.71;79.33
51876;BME280;34054;52.100;5.116;2022-10-16T00:42:29;100711.78;;;13.70;79.87
51876;BME280;34054;52.100;5.116;2022-10-16T00:43:02;100709.59;;;13.72;79.95
51876;BME280;34054;52.100;5.116;2022-10-16T00:43:41;100704.63;;;13.79;79.92
51876;BME280;34054;52.100;5.116;2022-10-16T00:44:44;100708.94;;;13.90;79.57
51876;BME280;34054;52.100;5.116;2022-10-16T00:45:18;100711.94;;;13.89;79.33
51876;BME280;34054;52.100;5.116;2022-10-16T00:45:50;100710.03;;;13.89;79.34
51876;BME280;34054;52.100;5.116;2022-10-16T00:46:24;100696.38;;;13.89;79.29
51876;BME280;34054;52.100;5.116;2022-10-16T00:46:57;100705.88;;;13.97;79.10
51876;BME280;34054;52.100;5.116;2022-10-16T00:47:32;100711.56;;;14.06;79.13
51876;BME280;34054;52.100;5.116;2022-10-16T00:48:13;100706.31;;;14.14;78.73
51876;BME280;34054;52.100;5.116;2022-10-16T00:48:49;100703.38;;;14.06;78.71
51876;BME280;34054;52.100;5.116;2022-10-16T00:49:23;100697.41;;;13.98;78.78
51876;BME280;34054;52.100;5.116;2022-10-16T00:49:59;100714.81;;;14.08;78.66
51876;BME280;34054;52.100;5.116;2022-10-16T00:50:34;100726.56;;;14.08;78.73
51876;BME280;34054;52.100;5.116;2022-10-16T00:51:07;100703.53;;;13.80;79.15
51876;BME280;34054;52.100;5.116;2022-10-16T00:51:42;100708.75;;;13.76;79.62
51876;BME280;34054;52.100;5.116;2022-10-16T00:52:16;100697.00;;;13.76;79.90
51876;BME280;34054;52.100;5.116;2022-10-16T00:52:51;100721.81;;;13.79;80.13
51876;BME280;34054;52.100;5.116;2022-10-16T00:53:24;100729.47;;;13.77;80.41
51876;BME280;34054;52.100;5.116;2022-10-16T00:53:59;100727.84;;;13.76;80.56
51876;BME280;34054;52.100;5.116;2022-10-16T00:54:34;100724.03;;;13.77;80.65
51876;BME280;34054;52.100;5.116;2022-10-16T00:55:06;100726.13;;;13.91;80.46
51876;BME280;34054;52.100;5.116;2022-10-16T00:55:40;100717.69;;;13.87;80.25
51876;BME280;34054;52.100;5.116;2022-10-16T00:56:13;100728.06;;;13.85;80.15
51876;BME280;34054;52.100;5.116;2022-10-16T00:56:45;100721.28;;;13.77;80.79
51876;BME280;34054;52.100;5.116;2022-10-16T00:57:18;100723.75;;;13.74;80.88
51876;BME280;34054;52.100;5.116;2022-10-16T00:57:51;100726.47;;;13.74;81.07
51876;BME280;34054;52.100;5.116;2022-10-16T00:58:23;100728.31;;;13.89;80.98
51876;BME280;34054;52.100;5.116;2022-10-16T00:58:54;100710.09;;;13.79;80.54
51876;BME280;34054;52.100;5.116;2022-10-16T00:59:28;100713.66;;;13.74;80.83
51876;BME280;34054;52.100;5.116;2022-10-16T01:00:08;100743.69;;;13.74;81.16
51876;BME280;34054;52.100;5.116;2022-10-16T01:00:43;100732.75;;;13.74;81.42
51876;BME280;34054;52.100;5.116;2022-10-16T01:01:15;100738.72;;;13.81;81.31
51876;BME280;34054;52.100;5.116;2022-10-16T01:01:47;100736.84;;;13.77;81.52
51876;BME280;34054;52.100;5.116;2022-10-16T01:02:19;100737.66;;;13.77;81.71
51876;BME280;34054;52.100;5.116;2022-10-16T01:02:52;100734.41;;;13.75;81.82
51876;BME280;34054;52.100;5.116;2022-10-16T01:03:28;100739.56;;;13.77;81.73
51876;BME280;34054;52.100;5.116;2022-10-16T01:04:03;100742.81;;;13.84;81.69
51876;BME280;34054;52.100;5.116;2022-10-16T01:04:38;100729.19;;;13.74;81.50
51876;BME280;34054;52.100;5.116;2022-10-16T01:05:15;100743.13;;;13.77;81.45
51876;BME280;34054;52.100;5.116;2022-10-16T01:05:51;100739.53;;;13.82;81.49
51876;BME280;34054;52.100;5.116;2022-10-16T01:06:38;100737.88;;;13.86;81.58
51876;BME280;34054;52.100;5.116;2022-10-16T01:07:26;100732.97;;;13.88;81.41
51876;BME280;34054;52.100;5.116;2022-10-16T01:08:12;100736.25;;;13.85;81.57
51876;BME280;34054;52.100;5.116;2022-10-16T01:09:03;100736.28;;;13.80;81.76
51876;BME280;34054;52.100;5.116;2022-10-16T01:09:49;100726.75;;;13.77;82.13
51876;BME280;34054;52.100;5.116;2022-10-16T01:10:35;100732.22;;;13.77;82.28
51876;BME280;34054;52.100;5.116;2022-10-16T01:11:19;100730.28;;;13.78;82.32
51876;BME280;34054;52.100;5.116;2022-10-16T01:12:02;100716.69;;;13.73;82.31
51876;BME280;34054;52.100;5.116;2022-10-16T01:12:42;100732.47;;;13.81;82.31
51876;BME280;34054;52.100;5.116;2022-10-16T01:13:21;100734.41;;;13.75;82.45
51876;BME280;34054;52.100;5.116;2022-10-16T01:14:01;100731.94;;;13.74;82.84
51876;BME280;34054;52.100;5.116;2022-10-16T01:14:44;100723.72;;;13.79;82.70
51876;BME280;34054;52.100;5.116;2022-10-16T01:15:24;100726.16;;;13.80;82.62
51876;BME280;34054;52.100;5.116;2022-10-16T01:16:06;100726.47;;;13.79;82.84
51876;BME280;34054;52.100;5.116;2022-10-16T01:16:47;100734.66;;;13.74;82.83
51876;BME280;34054;52.100;5.116;2022-10-16T01:17:28;100728.34;;;13.78;83.06
51876;BME280;34054;52.100;5.116;2022-10-16T01:18:09;100725.38;;;13.80;82.99
51876;BME280;34054;52.100;5.116;2022-10-16T01:18:49;100729.16;;;13.84;82.81
51876;BME280;34054;52.100;5.116;2022-10-16T01:19:41;100743.63;;;13.79;83.00
51876;BME280;34054;52.100;5.116;2022-10-16T01:20:29;100738.22;;;13.74;83.35
51876;BME280;34054;52.100;5.116;2022-10-16T01:21:05;100737.69;;;13.72;83.53
51876;BME280;34054;52.100;5.116;2022-10-16T01:21:42;100741.75;;;13.75;83.46
51876;BME280;34054;52.100;5.116;2022-10-16T01:22:20;100725.13;;;13.71;83.94
51876;BME280;34054;52.100;5.116;2022-10-16T01:23:04;100736.03;;;13.71;83.99
51876;BME280;34054;52.100;5.116;2022-10-16T01:23:48;100735.25;;;13.71;83.93
51876;BME280;34054;52.100;5.116;2022-10-16T01:24:33;100728.41;;;13.73;83.75
51876;BME280;34054;52.100;5.116;2022-10-16T01:25:16;100722.72;;;13.64;84.05
51876;BME280;34054;52.100;5.116;2022-10-16T01:26:20;100742.81;;;13.84;83.75
51876;BME280;34054;52.100;5.116;2022-10-16T01:27:14;100737.63;;;13.82;83.91
51876;BME280;34054;52.100;5.116;2022-10-16T01:27:51;100731.09;;;13.78;83.87
51876;BME280;34054;52.100;5.116;2022-10-16T01:28:28;100708.78;;;13.61;84.00
51876;BME280;34054;52.100;5.116;2022-10-16T01:29:08;100722.19;;;13.62;84.20
51876;BME280;34054;52.100;5.116;2022-10-16T01:29:51;100721.66;;;13.55;84.62
51876;BME280;34054;52.100;5.116;2022-10-16T01:30:27;100712.94;;;13.48;84.94
51876;BME280;34054;52.100;5.116;2022-10-16T01:31:03;100730.41;;;13.52;85.35
51876;BME280;34054;52.100;5.116;2022-10-16T01:31:39;100736.06;;;13.66;85.39
51876;BME280;34054;52.100;5.116;2022-10-16T01:32:19;100744.47;;;13.75;85.01
51876;BME280;34054;52.100;5.116;2022-10-16T01:33:02;100733.34;;;13.66;84.90
51876;BME280;34054;52.100;5.116;2022-10-16T01:33:42;100729.78;;;13.65;85.25
51876;BME280;34054;52.100;5.116;2022-10-16T01:34:22;100706.94;;;13.56;85.48
51876;BME280;34054;52.100;5.116;2022-10-16T01:35:04;100722.13;;;13.73;85.69
51876;BME280;34054;52.100;5.116;2022-10-16T01:35:46;100714.72;;;13.78;85.55
51876;BME280;34054;52.100;5.116;2022-10-16T01:36:25;100709.78;;;13.86;86.09
51876;BME280;34054;52.100;5.116;2022-10-16T01:37:04;100676.75;;;13.82;86.27
51876;BME280;34054;52.100;5.116;2022-10-16T01:37:47;100702.91;;;13.93;86.23
51876;BME280;34054;52.100;5.116;2022-10-16T01:38:26;100684.09;;;13.87;86.58
51876;BME280;34054;52.100;5.116;2022-10-16T01:39:06;100668.25;;;13.89;86.74
51876;BME280;34054;52.100;5.116;2022-10-16T01:39:42;100660.34;;;13.87;87.27
51876;BME280;34054;52.100;5.116;2022-10-16T01:40:19;100662.59;;;13.80;87.53
51876;BME280;34054;52.100;5.116;2022-10-16T01:41:00;100638.34;;;13.73;87.98
51876;BME280;34054;52.100;5.116;2022-10-16T01:41:38;100654.91;;;13.87;88.01
51876;BME280;34054;52.100;5.116;2022-10-16T01:42:18;100667.41;;;13.93;87.82
51876;BME280;34054;52.100;5.116;2022-10-16T01:43:06;100643.19;;;13.81;87.72
51876;BME280;34054;52.100;5.116;2022-10-16T01:43:46;100685.22;;;13.80;87.48
51876;BME280;34054;52.100;5.116;2022-10-16T01:44:26;100675.94;;;13.81;87.68
51876;BME280;34054;52.100;5.116;2022-10-16T01:45:05;100674.13;;;13.66;87.69
51876;BME280;34054;52.100;5.116;2022-10-16T01:45:40;100684.47;;;13.70;88.15
51876;BME280;34054;52.100;5.116;2022-10-16T01:46:18;100692.38;;;13.71;88.35
51876;BME280;34054;52.100;5.116;2022-10-16T01:46:54;100692.91;;;13.73;88.48
51876;BME280;34054;52.100;5.116;2022-10-16T01:47:27;100696.19;;;13.70;88.35
51876;BME280;34054;52.100;5.116;2022-10-16T01:48:05;100686.66;;;13.68;88.41
51876;BME280;34054;52.100;5.116;2022-10-16T01:48:40;100688.31;;;13.69;88.40
51876;BME280;34054;52.100;5.116;2022-10-16T01:49:14;100692.03;;;13.83;88.19
51876;BME280;34054;52.100;5.116;2022-10-16T01:49:49;100697.25;;;13.79;87.82
51876;BME280;34054;52.100;5.116;2022-10-16T01:50:24;100699.41;;;13.82;87.75
51876;BME280;34054;52.100;5.116;2022-10-16T01:51:01;100705.97;;;13.81;87.74
51876;BME280;34054;52.100;5.116;2022-10-16T01:51:37;100695.91;;;13.77;87.72
51876;BME280;34054;52.100;5.116;2022-10-16T01:52:13;100699.72;;;13.81;87.70
51876;BME280;34054;52.100;5.116;2022-10-16T01:52:51;100691.00;;;13.74;87.66
51876;BME280;34054;52.100;5.116;2022-10-16T01:53:26;100700.84;;;13.70;87.66
51876;BME280;34054;52.100;5.116;2022-10-16T01:54:00;100700.84;;;13.70;87.84
51876;BME280;34054;52.100;5.116;2022-10-16T01:54:35;100690.69;;;13.80;87.83
51876;BME280;34054;52.100;5.116;2022-10-16T01:55:10;100701.16;;;13.68;87.74
51876;BME280;34054;52.100;5.116;2022-10-16T01:55:47;100704.69;;;13.69;88.04
51876;BME280;34054;52.100;5.116;2022-10-16T01:56:22;100704.38;;;13.75;87.96
51876;BME280;34054;52.100;5.116;2022-10-16T01:56:57;100709.00;;;13.80;87.87
51876;BME280;34054;52.100;5.116;2022-10-16T01:57:32;100699.72;;;13.81;87.71
51876;BME280;34054;52.100;5.116;2022-10-16T01:58:10;100702.09;;;13.88;87.61
51876;BME280;34054;52.100;5.116;2022-10-16T01:58:47;100705.13;;;13.86;87.49
51876;BME280;34054;52.100;5.116;2022-10-16T01:59:24;100703.47;;;13.90;87.21
51876;BME280;34054;52.100;5.116;2022-10-16T02:00:03;100703.75;;;13.89;87.17
51876;BME280;34054;52.100;5.116;2022-10-16T02:00:40;100715.75;;;13.93;87.07
51876;BME280;34054;52.100;5.116;2022-10-16T02:01:16;100709.19;;;13.94;86.90
51876;BME280;34054;52.100;5.116;2022-10-16T02:01:57;100709.44;;;13.92;87.01
51876;BME280;34054;52.100;5.116;2022-10-16T02:02:33;100697.25;;;13.79;87.11
51876;BME280;34054;52.100;5.116;2022-10-16T02:03:07;100698.59;;;13.82;87.13
51876;BME280;34054;52.100;5.116;2022-10-16T02:03:42;100706.84;;;13.72;87.48
51876;BME280;34054;52.100;5.116;2022-10-16T02:04:18;100710.09;;;13.74;87.89
51876;BME280;34054;52.100;5.116;2022-10-16T02:04:57;100718.81;;;13.76;87.92
51876;BME280;34054;52.100;5.116;2022-10-16T02:05:37;100719.41;;;13.68;88.16
51876;BME280;34054;52.100;5.116;2022-10-16T02:06:13;100713.94;;;13.73;88.12
51876;BME280;34054;52.100;5.116;2022-10-16T02:06:45;100708.22;;;13.69;88.17
51876;BME280;34054;52.100;5.116;2022-10-16T02:07:17;100714.97;;;13.82;88.03
51876;BME280;34054;52.100;5.116;2022-10-16T02:07:49;100695.41;;;13.70;87.74
51876;BME280;34054;52.100;5.116;2022-10-16T02:08:22;100715.25;;;13.80;87.62
51876;BME280;34054;52.100;5.116;2022-10-16T02:08:59;100721.22;;;13.88;87.44
51876;BME280;34054;52.100;5.116;2022-10-16T02:09:33;100704.69;;;13.69;87.57
51876;BME280;34054;52.100;5.116;2022-10-16T02:10:06;100706.41;;;13.54;87.88
51876;BME280;34054;52.100;5.116;2022-10-16T02:10:38;100723.75;;;13.74;87.97
51876;BME280;34054;52.100;5.116;2022-10-16T02:11:11;100712.81;;;13.74;87.86
51876;BME280;34054;52.100;5.116;2022-10-16T02:11:43;100708.50;;;13.68;87.85
51876;BME280;34054;52.100;5.116;2022-10-16T02:12:19;100713.97;;;13.68;88.12
51876;BME280;34054;52.100;5.116;2022-10-16T02:13:01;100714.25;;;13.66;88.20
51876;BME280;34054;52.100;5.116;2022-10-16T02:13:42;100716.09;;;13.81;88.09
51876;BME280;34054;52.100;5.116;2022-10-16T02:14:17;100714.94;;;13.87;87.62
51876;BME280;34054;52.100;5.116;2022-10-16T02:14:51;100717.13;;;13.85;87.41
51876;BME280;34054;52.100;5.116;2022-10-16T02:15:22;100723.69;;;13.84;87.43
51876;BME280;34054;52.100;5.116;2022-10-16T02:15:54;100711.44;;;13.81;87.60
51876;BME280;34054;52.100;5.116;2022-10-16T02:16:32;100710.88;;;13.85;87.44
51876;BME280;34054;52.100;5.116;2022-10-16T02:17:11;100718.44;;;13.98;87.39
51876;BME280;34054;52.100;5.116;2022-10-16T02:17:45;100716.59;;;13.88;86.96
51876;BME280;34054;52.100;5.116;2022-10-16T02:18:17;100712.50;;;13.86;87.09
51876;BME280;34054;52.100;5.116;2022-10-16T02:18:48;100717.13;;;13.85;87.04
51876;BME280;34054;52.100;5.116;2022-10-16T02:19:21;100716.00;;;13.91;87.07
51876;BME280;34054;52.100;5.116;2022-10-16T02:19:54;100711.13;;;13.83;87.26
51876;BME280;34054;52.100;5.116;2022-10-16T02:20:34;100720.16;;;13.84;87.11
51876;BME280;34054;52.100;5.116;2022-10-16T02:21:16;100676.97;;;13.46;87.16
51876;BME280;34054;52.100;5.116;2022-10-16T02:21:56;100732.50;;;13.65;87.65
51876;BME280;34054;52.100;5.116;2022-10-16T02:22:32;100706.41;;;13.49;88.34
51876;BME280;34054;52.100;5.116;2022-10-16T02:23:10;100724.63;;;13.64;88.49
51876;BME280;34054;52.100;5.116;2022-10-16T02:23:51;100737.16;;;13.65;88.52
51876;BME280;34054;52.100;5.116;2022-10-16T02:24:34;100731.41;;;13.66;88.34
51876;BME280;34054;52.100;5.116;2022-10-16T02:25:12;100740.97;;;13.69;88.31
51876;BME280;34054;52.100;5.116;2022-10-16T02:25:49;100729.53;;;13.67;88.19
51876;BME280;34054;52.100;5.116;2022-10-16T02:26:27;100734.41;;;13.70;88.27
51876;BME280;34054;52.100;5.116;2022-10-16T02:27:10;100724.03;;;13.77;88.17
51876;BME280;34054;52.100;5.116;2022-10-16T02:27:52;100722.91;;;13.78;87.80
51876;BME280;34054;52.100;5.116;2022-10-16T02:28:35;100730.00;;;13.85;87.60
51876;BME280;34054;52.100;5.116;2022-10-16T02:29:16;100728.88;;;13.86;87.62
51876;BME280;34054;52.100;5.116;2022-10-16T02:29:55;100730.78;;;13.85;87.51
51876;BME280;34054;52.100;5.116;2022-10-16T02:30:36;100730.00;;;13.79;87.66
51876;BME280;34054;52.100;5.116;2022-10-16T02:31:16;100722.44;;;13.66;87.99
51876;BME280;34054;52.100;5.116;2022-10-16T02:31:56;100728.09;;;13.75;88.00
51876;BME280;34054;52.100;5.116;2022-10-16T02:32:32;100731.41;;;13.72;87.88
51876;BME280;34054;52.100;5.116;2022-10-16T02:33:08;100730.13;;;13.59;88.30
51876;BME280;34054;52.100;5.116;2022-10-16T02:33:45;100729.31;;;13.53;88.70
51876;BME280;34054;52.100;5.116;2022-10-16T02:34:18;100727.13;;;13.50;88.87
51876;BME280;34054;52.100;5.116;2022-10-16T02:34:54;100729.31;;;13.53;89.06
51876;BME280;34054;52.100;5.116;2022-10-16T02:35:27;100731.50;;;13.56;89.04
51876;BME280;34054;52.100;5.116;2022-10-16T02:36:02;100738.56;;;13.62;88.92
51876;BME280;34054;52.100;5.116;2022-10-16T02:36:35;100732.25;;;13.67;88.73
51876;BME280;34054;52.100;5.116;2022-10-16T02:37:07;100735.78;;;13.68;88.72
51876;BME280;34054;52.100;5.116;2022-10-16T02:37:41;100735.81;;;13.62;88.67
51876;BME280;34054;52.100;5.116;2022-10-16T02:38:15;100722.44;;;13.61;88.91
51876;BME280;34054;52.100;5.116;2022-10-16T02:38:49;100721.94;;;13.59;88.91
51876;BME280;34054;52.100;5.116;2022-10-16T02:39:21;100733.31;;;13.71;88.76
51876;BME280;34054;52.100;5.116;2022-10-16T02:39:54;100736.03;;;13.71;88.56
51876;BME280;34054;52.100;5.116;2022-10-16T02:40:27;100724.59;;;13.69;88.47
51876;BME280;34054;52.100;5.116;2022-10-16T02:41:00;100688.94;;;13.50;88.43
51876;BME280;34054;52.100;5.116;2022-10-16T02:41:32;100735.25;;;13.71;88.37
51876;BME280;34054;52.100;5.116;2022-10-16T02:42:04;100740.19;;;13.58;88.77
51876;BME280;34054;52.100;5.116;2022-10-16T02:42:38;100726.59;;;13.48;89.14
51876;BME280;34054;52.100;5.116;2022-10-16T02:43:11;100739.13;;;13.49;89.43
51876;BME280;34054;52.100;5.116;2022-10-16T02:43:44;100734.78;;;13.53;89.62
51876;BME280;34054;52.100;5.116;2022-10-16T02:44:17;100732.25;;;13.62;89.34
51876;BME280;34054;52.100;5.116;2022-10-16T02:44:48;100736.88;;;13.66;89.21
51876;BME280;34054;52.100;5.116;2022-10-16T02:45:21;100719.75;;;13.56;89.05
51876;BME280;34054;52.100;5.116;2022-10-16T02:45:54;100728.47;;;13.53;89.15
51876;BME280;34054;52.100;5.116;2022-10-16T02:46:26;100735.81;;;13.57;89.32
51876;BME280;34054;52.100;5.116;2022-10-16T02:46:57;100738.00;;;13.60;89.27
51876;BME280;34054;52.100;5.116;2022-10-16T02:47:29;100751.34;;;13.67;89.02
51876;BME280;34054;52.100;5.116;2022-10-16T02:48:02;100748.97;;;13.50;89.15
51876;BME280;34054;52.100;5.116;2022-10-16T02:48:33;100741.63;;;13.40;89.91
51876;BME280;34054;52.100;5.116;2022-10-16T02:49:05;100735.63;;;13.33;90.15
51876;BME280;34054;52.100;5.116;2022-10-16T02:49:38;100744.66;;;13.39;90.72
51876;BME280;34054;52.100;5.116;2022-10-16T02:50:10;100746.53;;;13.43;90.68
51876;BME280;34054;52.100;5.116;2022-10-16T02:50:42;100724.97;;;13.37;90.70
51876;BME280;34054;52.100;5.116;2022-10-16T02:51:14;100733.72;;;13.44;90.34
51876;BME280;34054;52.100;5.116;2022-10-16T02:51:46;100742.66;;;13.55;90.09
51876;BME280;34054;52.100;5.116;2022-10-16T02:52:18;100709.72;;;13.41;90.02
51876;BME280;34054;52.100;5.116;2022-10-16T02:52:51;100726.28;;;13.55;89.72
51876;BME280;34054;52.100;5.116;2022-10-16T02:53:23;100739.59;;;13.66;89.40
51876;BME280;34054;52.100;5.116;2022-10-16T02:53:54;100725.50;;;13.49;89.22
51876;BME280;34054;52.100;5.116;2022-10-16T02:54:27;100736.66;;;13.58;89.35
51876;BME280;34054;52.100;5.116;2022-10-16T02:54:59;100742.41;;;13.56;89.67
51876;BME280;34054;52.100;5.116;2022-10-16T02:55:30;100746.75;;;13.57;89.89
51876;BME280;34054;52.100;5.116;2022-10-16T02:56:03;100751.69;;;13.55;89.82
51876;BME280;34054;52.100;5.116;2022-10-16T02:56:35;100748.91;;;13.60;89.87
51876;BME280;34054;52.100;5.116;2022-10-16T02:57:07;100745.09;;;13.61;89.93
51876;BME280;34054;52.100;5.116;2022-10-16T02:57:38;100746.16;;;13.65;89.64
51876;BME280;34054;52.100;5.116;2022-10-16T02:58:11;100730.69;;;13.45;89.77
51876;BME280;34054;52.100;5.116;2022-10-16T02:58:44;100740.78;;;13.50;90.01
51876;BME280;34054;52.100;5.116;2022-10-16T02:59:16;100749.78;;;13.50;90.19
51876;BME280;34054;52.100;5.116;2022-10-16T02:59:48;100704.81;;;13.32;90.28
51876;BME280;34054;52.100;5.116;2022-10-16T03:00:20;100746.75;;;13.62;89.99
51876;BME280;34054;52.100;5.116;2022-10-16T03:00:52;100734.47;;;13.55;89.99
51876;BME280;34054;52.100;5.116;2022-10-16T03:01:24;100738.03;;;13.55;89.99
51876;BME280;34054;52.100;5.116;2022-10-16T03:01:56;100735.34;;;13.45;90.01
51876;BME280;34054;52.100;5.116;2022-10-16T03:02:28;100730.97;;;13.44;90.29
51876;BME280;34054;52.100;5.116;2022-10-16T03:03:00;100742.66;;;13.60;90.23
51876;BME280;34054;52.100;5.116;2022-10-16T03:03:32;100728.50;;;13.47;90.20
51876;BME280;34054;52.100;5.116;2022-10-16T03:04:03;100743.19;;;13.62;90.16
51876;BME280;34054;52.100;5.116;2022-10-16T03:04:36;100739.38;;;13.53;90.30
51876;BME280;34054;52.100;5.116;2022-10-16T03:05:09;100740.78;;;13.50;90.38
51876;BME280;34054;52.100;5.116;2022-10-16T03:05:43;100737.81;;;13.41;90.67
51876;BME280;34054;52.100;5.116;2022-10-16T03:06:16;100738.88;;;13.35;90.98